createdAt,value
2023-09-21T00:01:19.992Z,88.98
2023-09-21T00:04:23.136Z,88.87
2023-09-21T00:07:25.594Z,88.55
2023-09-21T00:10:30.608Z,89.02
2023-09-21T00:13:33.746Z,89.28
2023-09-21T00:16:36.255Z,88.62
2023-09-21T00:19:38.510Z,89.20
2023-09-21T00:22:40.507Z,89.16
2023-09-21T00:25:42.788Z,89.71
2023-09-21T00:28:45.721Z,88.94
2023-09-21T00:31:48.256Z,89.39
2023-09-21T00:34:53.234Z,88.96
2023-09-21T00:37:55.277Z,89.61
2023-09-21T00:40:59.411Z,89.71
2023-09-21T00:44:08.724Z,89.67
2023-09-21T00:47:10.712Z,89.14
2023-09-21T00:50:13.718Z,89.06
2023-09-21T00:53:17.212Z,88.75
2023-09-21T00:56:20.601Z,89.08
2023-09-21T00:59:23.104Z,89.50
2023-09-21T01:02:25.766Z,89.34
2023-09-21T01:05:28.013Z,88.62
2023-09-21T01:08:30.314Z,89.18
2023-09-21T01:11:32.496Z,89.36
2023-09-21T01:14:35.274Z,89.28
2023-09-21T01:17:40.560Z,89.61
2023-09-21T01:20:43.509Z,90.01
2023-09-21T01:23:48.259Z,89.23
2023-09-21T01:26:50.679Z,89.86
2023-09-21T01:29:53.674Z,89.91
2023-09-21T01:32:55.959Z,88.91
2023-09-21T01:35:58.157Z,89.82
2023-09-21T01:39:00.400Z,88.67
2023-09-21T01:42:02.580Z,89.41
2023-09-21T01:45:05.347Z,88.33
2023-09-21T01:48:11.503Z,88.43
2023-09-21T01:51:14.216Z,88.79
2023-09-21T01:54:16.422Z,88.55
2023-09-21T01:57:18.793Z,89.24
2023-09-21T02:00:28.708Z,87.95
2023-09-21T02:03:33.066Z,88.73
2023-09-21T02:06:35.290Z,89.76
2023-09-21T02:09:37.463Z,88.57
2023-09-21T02:12:40.435Z,88.76
2023-09-21T02:15:42.451Z,88.77
2023-09-21T02:18:45.675Z,88.99
2023-09-21T02:21:48.297Z,88.91
2023-09-21T02:24:50.461Z,88.80
2023-09-21T02:27:52.949Z,89.03
2023-09-21T02:30:55.035Z,89.11
2023-09-21T02:33:57.167Z,88.28
2023-09-21T02:36:59.879Z,89.00
2023-09-21T02:40:02.824Z,88.22
2023-09-21T02:43:05.322Z,88.85
2023-09-21T02:46:07.481Z,88.95
2023-09-21T02:49:09.524Z,88.34
2023-09-21T02:52:14.242Z,88.04
2023-09-21T02:55:22.415Z,87.97
2023-09-21T02:58:24.576Z,89.12
2023-09-21T03:01:31.870Z,88.62
2023-09-21T03:04:33.988Z,89.45
2023-09-21T03:07:39.697Z,88.08
2023-09-21T03:10:46.731Z,89.03
2023-09-21T03:13:50.275Z,88.50
2023-09-21T03:16:53.752Z,88.54
2023-09-21T03:19:56.630Z,88.40
2023-09-21T03:22:59.360Z,88.72
2023-09-21T03:26:01.669Z,88.53
2023-09-21T03:29:09.743Z,88.79
2023-09-21T03:32:11.979Z,88.42
2023-09-21T03:35:14.122Z,87.59
2023-09-21T03:38:25.840Z,87.49
2023-09-21T03:41:30.100Z,87.40
2023-09-21T03:44:33.267Z,87.79
2023-09-21T03:47:35.999Z,88.04
2023-09-21T03:50:39.643Z,87.60
2023-09-21T03:53:41.904Z,87.56
2023-09-21T03:56:45.610Z,88.53
2023-09-21T03:59:47.897Z,88.43
2023-09-21T04:02:50.170Z,88.39
2023-09-21T04:05:52.345Z,87.65
2023-09-21T04:08:54.365Z,88.54
2023-09-21T04:11:59.084Z,87.68
2023-09-21T04:15:01.415Z,88.56
2023-09-21T04:18:04.482Z,87.87
2023-09-21T04:21:19.143Z,87.38
2023-09-21T04:24:22.259Z,87.31
2023-09-21T04:27:25.023Z,87.02
2023-09-21T04:30:27.277Z,87.70
2023-09-21T04:33:29.532Z,87.60
2023-09-21T04:36:31.999Z,87.04
2023-09-21T04:39:34.199Z,87.05
2023-09-21T04:42:40.042Z,87.66
2023-09-21T04:45:42.294Z,86.65
2023-09-21T04:48:44.665Z,86.92
2023-09-21T04:51:46.953Z,87.01
2023-09-21T04:54:52.983Z,86.17
2023-09-21T04:57:56.672Z,91.02
2023-09-21T05:00:59.119Z,93.87
2023-09-21T05:04:01.900Z,96.06
2023-09-21T05:07:04.342Z,100.00
2023-09-21T05:10:08.720Z,100.00
2023-09-21T05:13:11.033Z,100.00
2023-09-21T05:16:14.016Z,100.00
2023-09-21T05:19:16.357Z,100.00
2023-09-21T05:22:18.560Z,100.00
2023-09-21T05:25:20.673Z,100.00
2023-09-21T05:28:23.235Z,100.00
2023-09-21T05:31:25.325Z,98.23
2023-09-21T05:34:30.615Z,96.29
2023-09-21T05:37:33.268Z,94.86
2023-09-21T05:40:35.855Z,93.75
2023-09-21T05:43:37.992Z,92.90
2023-09-21T05:46:40.328Z,91.48
2023-09-21T05:49:42.983Z,91.90
2023-09-21T05:52:45.211Z,90.83
2023-09-21T05:55:47.391Z,90.45
2023-09-21T05:58:49.599Z,90.48
2023-09-21T06:01:51.923Z,90.08
2023-09-21T06:04:54.613Z,89.77
2023-09-21T06:07:57.574Z,89.76
2023-09-21T06:10:59.704Z,89.02
2023-09-21T06:14:03.335Z,88.64
2023-09-21T06:17:07.921Z,87.92
2023-09-21T06:20:10.995Z,86.70
2023-09-21T06:23:13.103Z,84.99
2023-09-21T06:26:17.864Z,84.41
2023-09-21T06:29:21.253Z,83.99
2023-09-21T06:32:25.420Z,84.30
2023-09-21T06:35:28.741Z,83.06
2023-09-21T06:38:30.876Z,83.50
2023-09-21T06:41:32.970Z,83.38
2023-09-21T06:44:35.603Z,82.83
2023-09-21T06:47:37.744Z,82.29
2023-09-21T06:50:41.675Z,83.06
2023-09-21T06:53:45.155Z,82.82
2023-09-21T06:56:49.277Z,82.72
2023-09-21T06:59:52.943Z,82.96
2023-09-21T07:02:55.262Z,82.52
2023-09-21T07:05:57.959Z,82.66
2023-09-21T07:09:02.165Z,82.89
2023-09-21T07:12:07.304Z,83.59
2023-09-21T07:15:10.094Z,83.77
2023-09-21T07:18:12.489Z,84.12
2023-09-21T07:21:15.403Z,84.58
2023-09-21T07:24:17.506Z,84.64
2023-09-21T07:27:19.702Z,84.49
2023-09-21T07:30:30.203Z,84.70
2023-09-21T07:33:32.452Z,85.19
2023-09-21T07:36:36.494Z,85.26
2023-09-21T07:39:38.633Z,85.33
2023-09-21T07:42:43.675Z,85.19
2023-09-21T07:45:50.391Z,85.80
2023-09-21T07:48:53.198Z,85.42
2023-09-21T07:51:58.324Z,85.17
2023-09-21T07:55:01.271Z,85.24
2023-09-21T07:58:03.510Z,84.89
2023-09-21T08:01:05.728Z,85.60
2023-09-21T08:04:08.580Z,84.96
2023-09-21T08:07:10.724Z,85.47
2023-09-21T08:10:13.025Z,85.64
2023-09-21T08:13:15.242Z,85.03
2023-09-21T08:16:17.901Z,86.02
2023-09-21T08:19:19.986Z,85.43
2023-09-21T08:22:22.938Z,85.09
2023-09-21T08:25:26.678Z,85.75
2023-09-21T08:28:28.771Z,85.70
2023-09-21T08:31:30.955Z,85.28
2023-09-21T08:34:33.190Z,85.23
2023-09-21T08:37:38.200Z,85.12
2023-09-21T08:40:44.715Z,85.52
2023-09-21T08:43:48.502Z,85.67
2023-09-21T08:46:51.983Z,85.35
2023-09-21T08:49:54.076Z,85.18
2023-09-21T08:52:57.937Z,85.48
2023-09-21T08:56:00.164Z,85.31
2023-09-21T08:59:03.150Z,84.70
2023-09-21T09:02:05.336Z,84.47
2023-09-21T09:05:09.874Z,84.93
2023-09-21T09:08:13.517Z,85.08
2023-09-21T09:11:35.558Z,84.36
2023-09-21T09:14:43.000Z,84.13
2023-09-21T09:17:45.751Z,84.49
2023-09-21T09:20:49.092Z,84.42
2023-09-21T09:23:51.222Z,85.21
2023-09-21T09:26:53.992Z,85.02
2023-09-21T09:29:59.343Z,83.83
2023-09-21T09:33:04.141Z,83.91
2023-09-21T09:36:06.421Z,83.85
2023-09-21T09:39:16.511Z,84.13
2023-09-21T09:42:19.574Z,83.19
2023-09-21T09:45:32.292Z,82.66
2023-09-21T09:48:36.942Z,83.35
2023-09-21T09:51:46.331Z,82.06
2023-09-21T09:54:49.841Z,82.21
2023-09-21T09:57:55.423Z,82.95
2023-09-21T10:00:58.542Z,82.58
2023-09-21T10:04:02.428Z,81.92
2023-09-21T10:07:10.026Z,81.58
2023-09-21T10:10:16.631Z,82.13
2023-09-21T10:13:20.322Z,82.30
2023-09-21T10:16:25.619Z,82.53
2023-09-21T10:19:29.507Z,82.47
2023-09-21T10:22:31.810Z,81.54
2023-09-21T10:25:49.012Z,81.76
2023-09-21T10:28:52.903Z,81.99
2023-09-21T10:32:01.821Z,80.75
2023-09-21T10:35:04.543Z,80.32
2023-09-21T10:38:32.772Z,81.08
2023-09-21T10:41:35.389Z,80.56
2023-09-21T10:45:08.707Z,80.57
2023-09-21T10:48:12.056Z,80.01
2023-09-21T10:51:14.665Z,80.08
2023-09-21T10:54:18.966Z,79.82
2023-09-21T10:57:25.637Z,79.94
2023-09-21T11:00:29.134Z,80.52
2023-09-21T11:03:31.757Z,80.18
2023-09-21T11:06:34.183Z,79.86
2023-09-21T11:09:38.679Z,79.38
2023-09-21T11:12:42.062Z,79.91
2023-09-21T11:15:45.668Z,79.63
2023-09-21T11:18:53.985Z,78.68
2023-09-21T11:21:56.300Z,79.37
2023-09-21T11:24:59.400Z,79.65
2023-09-21T11:28:02.040Z,83.53
2023-09-21T11:31:06.810Z,84.48
2023-09-21T11:34:11.671Z,83.57
2023-09-21T11:37:14.858Z,83.50
2023-09-21T11:40:23.790Z,83.78
2023-09-21T11:43:27.569Z,82.34
2023-09-21T11:46:30.128Z,81.85
2023-09-21T11:49:37.455Z,82.51
2023-09-21T11:52:41.119Z,82.39
2023-09-21T11:55:43.231Z,82.03
2023-09-21T11:58:46.287Z,82.25
2023-09-21T12:01:50.193Z,82.13
2023-09-21T12:04:52.505Z,80.84
2023-09-21T12:07:54.515Z,78.80
2023-09-21T12:10:56.960Z,79.87
2023-09-21T12:13:59.314Z,79.38
2023-09-21T12:17:05.911Z,79.80
2023-09-21T12:20:13.107Z,78.65
2023-09-21T12:23:15.319Z,78.54
2023-09-21T12:26:18.374Z,78.63
2023-09-21T12:29:20.614Z,78.25
2023-09-21T12:32:23.188Z,76.47
2023-09-21T12:35:26.889Z,75.97
2023-09-21T12:38:29.059Z,76.16
2023-09-21T12:41:32.307Z,75.53
2023-09-21T12:44:36.755Z,74.31
2023-09-21T12:47:40.755Z,74.38
2023-09-21T12:50:42.986Z,74.26
2023-09-21T12:53:45.391Z,73.95
2023-09-21T12:56:48.080Z,73.91
2023-09-21T12:59:50.302Z,73.03
2023-09-21T13:02:52.598Z,73.74
2023-09-21T13:05:54.816Z,73.71
2023-09-21T13:08:57.075Z,72.77
2023-09-21T13:11:59.284Z,72.84
2023-09-21T13:15:02.335Z,73.99
2023-09-21T13:18:05.680Z,73.81
2023-09-21T13:21:11.603Z,73.80
2023-09-21T13:24:13.900Z,73.66
2023-09-21T13:27:16.146Z,73.38
2023-09-21T13:30:19.461Z,73.79
2023-09-21T13:33:21.755Z,73.49
2023-09-21T13:36:24.459Z,73.45
2023-09-21T13:39:29.428Z,74.30
2023-09-21T13:42:31.724Z,73.88
2023-09-21T13:45:36.100Z,73.97
2023-09-21T13:48:39.837Z,74.45
2023-09-21T13:51:44.410Z,74.30
2023-09-21T13:54:50.385Z,74.12
2023-09-21T13:57:56.373Z,73.84
2023-09-21T14:00:59.189Z,74.28
2023-09-21T14:04:02.958Z,73.98
2023-09-21T14:07:05.305Z,74.08
2023-09-21T14:10:08.292Z,74.09
2023-09-21T14:13:11.568Z,75.32
2023-09-21T14:16:13.757Z,75.31
2023-09-21T14:19:15.874Z,75.40
2023-09-21T14:22:18.191Z,75.48
2023-09-21T14:25:21.893Z,74.92
2023-09-21T14:28:24.503Z,75.61
2023-09-21T14:31:26.854Z,75.19
2023-09-21T14:34:31.148Z,76.01
2023-09-21T14:37:33.301Z,75.83
2023-09-21T14:40:36.248Z,75.44
2023-09-21T14:43:38.312Z,75.74
2023-09-21T14:46:40.616Z,75.92
2023-09-21T14:49:42.815Z,75.92
2023-09-21T14:52:44.933Z,75.75
2023-09-21T14:55:47.336Z,75.41
2023-09-21T14:58:49.529Z,76.17
2023-09-21T15:01:52.498Z,76.09
2023-09-21T15:04:54.727Z,75.90
2023-09-21T15:08:11.970Z,76.38
2023-09-21T15:11:15.266Z,75.74
2023-09-21T15:14:17.668Z,76.03
2023-09-21T15:17:19.758Z,76.18
2023-09-21T15:20:21.812Z,77.10
2023-09-21T15:23:24.071Z,76.81
2023-09-21T15:26:26.717Z,77.45
2023-09-21T15:29:29.616Z,77.65
2023-09-21T15:32:32.770Z,77.74
2023-09-21T15:35:34.920Z,78.22
2023-09-21T15:38:37.119Z,78.08
2023-09-21T15:41:39.411Z,77.79
2023-09-21T15:44:41.852Z,78.06
2023-09-21T15:47:44.204Z,78.71
2023-09-21T15:50:46.432Z,78.95
2023-09-21T15:53:49.656Z,79.66
2023-09-21T15:56:52.140Z,78.55
2023-09-21T15:59:54.512Z,79.53
2023-09-21T16:02:56.651Z,79.52
2023-09-21T16:05:58.781Z,80.33
2023-09-21T16:09:00.993Z,80.18
2023-09-21T16:12:03.333Z,80.23
2023-09-21T16:15:06.261Z,80.51
2023-09-21T16:18:09.409Z,80.36
2023-09-21T16:21:12.309Z,80.45
2023-09-21T16:24:14.541Z,80.18
2023-09-21T16:27:16.933Z,80.32
2023-09-21T16:30:21.302Z,80.69
2023-09-21T16:33:25.166Z,80.96
2023-09-21T16:36:29.716Z,81.30
2023-09-21T16:39:32.087Z,81.45
2023-09-21T16:42:34.923Z,81.71
2023-09-21T16:45:37.297Z,81.33
2023-09-21T16:48:39.736Z,81.90
2023-09-21T16:51:42.124Z,81.80
2023-09-21T16:54:47.270Z,81.27
2023-09-21T16:57:49.481Z,81.90
2023-09-21T17:00:51.947Z,82.43
2023-09-21T17:03:54.232Z,82.83
2023-09-21T17:06:59.152Z,82.73
2023-09-21T17:10:01.895Z,82.83
2023-09-21T17:13:04.229Z,82.10
2023-09-21T17:16:06.937Z,82.08
2023-09-21T17:19:09.877Z,82.68
2023-09-21T17:22:12.817Z,82.06
2023-09-21T17:25:15.177Z,82.61
2023-09-21T17:28:17.256Z,82.81
2023-09-21T17:31:21.455Z,82.61
2023-09-21T17:34:23.725Z,83.35
2023-09-21T17:37:26.289Z,83.30
2023-09-21T17:40:28.365Z,82.86
2023-09-21T17:43:31.377Z,82.87
2023-09-21T17:46:33.484Z,83.31
2023-09-21T17:49:35.866Z,83.81
2023-09-21T17:52:39.454Z,83.69
2023-09-21T17:55:41.615Z,83.23
2023-09-21T17:58:43.982Z,83.00
2023-09-21T18:01:46.729Z,83.69
2023-09-21T18:04:48.986Z,83.34
2023-09-21T18:07:51.177Z,83.67
2023-09-21T18:10:54.504Z,84.31
2023-09-21T18:13:56.585Z,83.53
2023-09-21T18:16:58.826Z,83.68
2023-09-21T18:20:01.139Z,83.51
2023-09-21T18:23:04.439Z,83.45
2023-09-21T18:26:06.557Z,83.50
2023-09-21T18:29:12.075Z,83.74
2023-09-21T18:32:14.277Z,83.74
2023-09-21T18:35:19.586Z,83.79
2023-09-21T18:38:23.395Z,84.46
2023-09-21T18:41:25.770Z,84.14
2023-09-21T18:44:28.204Z,84.75
2023-09-21T18:47:30.394Z,83.87
2023-09-21T18:50:32.770Z,84.56
2023-09-21T18:53:34.845Z,84.42
2023-09-21T18:56:46.711Z,83.97
2023-09-21T18:59:53.154Z,83.98
2023-09-21T19:02:55.465Z,85.38
2023-09-21T19:05:57.662Z,85.12
2023-09-21T19:09:01.515Z,85.35
2023-09-21T19:12:06.504Z,85.71
2023-09-21T19:15:10.175Z,85.78
2023-09-21T19:18:12.328Z,85.63
2023-09-21T19:21:15.007Z,85.83
2023-09-21T19:24:17.949Z,85.75
2023-09-21T19:27:21.485Z,86.32
2023-09-21T19:30:23.800Z,86.14
2023-09-21T19:33:26.067Z,86.98
2023-09-21T19:36:28.657Z,86.84
2023-09-21T19:39:30.903Z,86.72
2023-09-21T19:42:36.619Z,87.00
2023-09-21T19:45:41.033Z,86.78
2023-09-21T19:48:43.159Z,86.80
2023-09-21T19:51:45.724Z,86.68
2023-09-21T19:54:47.996Z,86.80
2023-09-21T19:57:52.697Z,86.88
2023-09-21T20:00:55.465Z,87.09
2023-09-21T20:03:57.681Z,87.02
2023-09-21T20:07:00.133Z,86.79
2023-09-21T20:10:05.238Z,87.35
2023-09-21T20:13:09.393Z,87.07
2023-09-21T20:16:11.592Z,87.22
2023-09-21T20:19:13.737Z,87.16
2023-09-21T20:22:15.808Z,87.79
2023-09-21T20:25:18.002Z,87.35
2023-09-21T20:28:23.036Z,87.17
2023-09-21T20:31:25.682Z,87.08
2023-09-21T20:34:28.036Z,87.47
2023-09-21T20:37:30.203Z,86.74
2023-09-21T20:40:34.098Z,86.57
2023-09-21T20:43:38.573Z,86.54
2023-09-21T20:46:40.764Z,87.03
2023-09-21T20:49:42.960Z,86.83
2023-09-21T20:52:45.026Z,87.15
2023-09-21T20:55:47.923Z,86.91
2023-09-21T20:58:50.151Z,87.05
2023-09-21T21:01:52.334Z,86.98
2023-09-21T21:04:54.674Z,86.55
2023-09-21T21:07:56.853Z,87.03
2023-09-21T21:10:59.003Z,86.83
2023-09-21T21:14:01.225Z,87.20
2023-09-21T21:17:03.333Z,87.57
2023-09-21T21:20:06.251Z,87.52
2023-09-21T21:23:08.435Z,87.33
2023-09-21T21:26:10.558Z,87.47
2023-09-21T21:29:12.841Z,87.31
2023-09-21T21:32:14.874Z,87.07
2023-09-21T21:35:18.226Z,87.46
2023-09-21T21:38:23.838Z,87.43
2023-09-21T21:41:26.335Z,87.59
2023-09-21T21:44:28.700Z,87.19
2023-09-21T21:47:30.762Z,87.23
2023-09-21T21:50:33.736Z,87.03
2023-09-21T21:53:35.822Z,87.06
2023-09-21T21:56:38.024Z,87.28
2023-09-21T21:59:40.540Z,86.93
2023-09-21T22:02:42.636Z,87.47
2023-09-21T22:05:45.127Z,87.57
2023-09-21T22:08:47.554Z,87.50
2023-09-21T22:11:50.816Z,87.52
2023-09-21T22:14:53.466Z,87.81
2023-09-21T22:17:55.509Z,87.66
2023-09-21T22:20:57.760Z,87.51
2023-09-21T22:23:59.753Z,87.89
2023-09-21T22:27:01.851Z,87.55
2023-09-21T22:30:06.281Z,87.76
2023-09-21T22:33:09.195Z,87.68
2023-09-21T22:36:12.027Z,87.83
2023-09-21T22:39:15.454Z,87.87
2023-09-21T22:42:19.744Z,87.54
2023-09-21T22:45:21.914Z,87.76
2023-09-21T22:48:24.723Z,87.69
2023-09-21T22:51:26.933Z,87.89
2023-09-21T22:54:29.213Z,87.95
2023-09-21T22:57:34.451Z,88.14
2023-09-21T23:00:37.824Z,87.63
2023-09-21T23:03:40.015Z,88.15
2023-09-21T23:06:42.151Z,87.86
2023-09-21T23:09:44.300Z,88.27
2023-09-21T23:12:46.657Z,88.26
2023-09-21T23:15:48.919Z,87.89
2023-09-21T23:18:51.762Z,88.37
2023-09-21T23:21:53.853Z,87.95
2023-09-21T23:24:55.913Z,88.00
2023-09-21T23:27:59.057Z,87.90
2023-09-21T23:31:01.556Z,87.90
2023-09-21T23:34:03.827Z,88.24
2023-09-21T23:37:06.501Z,88.05
2023-09-21T23:40:09.578Z,88.22
2023-09-21T23:43:12.065Z,88.18
2023-09-21T23:46:14.215Z,88.00
2023-09-21T23:49:16.998Z,88.31
2023-09-21T23:52:19.076Z,87.92
2023-09-21T23:55:21.083Z,88.22
2023-09-21T23:58:23.392Z,87.93
